sensor_id;sensor_type;location;lat;lon;timestamp;temperature;humidity
25914;DHT22;13718;50.922;5.346;2023-11-21T00:02:25;9.60;99.90
25914;DHT22;13718;50.922;5.346;2023-11-21T00:04:50;9.60;99.90
25914;DHT22;13718;50.922;5.346;2023-11-21T00:07:17;9.60;99.90
25914;DHT22;13718;50.922;5.346;2023-11-21T00:09:42;9.60;99.90
25914;DHT22;13718;50.922;5.346;2023-11-21T00:12:08;9.70;99.90
25914;DHT22;13718;50.922;5.346;2023-11-21T00:14:39;9.60;99.90
25914;DHT22;13718;50.922;5.346;2023-11-21T00:17:05;9.60;99.90
25914;DHT22;13718;50.922;5.346;2023-11-21T00:19:31;9.60;99.90
25914;DHT22;13718;50.922;5.346;2023-11-21T00:21:57;9.60;99.90
25914;DHT22;13718;50.922;5.346;2023-11-21T00:24:23;9.70;99.90
25914;DHT22;13718;50.922;5.346;2023-11-21T00:26:50;9.70;99.90
25914;DHT22;13718;50.922;5.346;2023-11-21T00:29:15;9.70;99.90
25914;DHT22;13718;50.922;5.346;2023-11-21T00:31:43;9.70;99.90
25914;DHT22;13718;50.922;5.346;2023-11-21T00:34:08;9.70;99.90
25914;DHT22;13718;50.922;5.346;2023-11-21T00:36:34;9.70;99.90
25914;DHT22;13718;50.922;5.346;2023-11-21T00:39:00;9.70;99.90
25914;DHT22;13718;50.922;5.346;2023-11-21T00:41:26;9.80;99.90
25914;DHT22;13718;50.922;5.346;2023-11-21T00:43:54;9.80;99.90
25914;DHT22;13718;50.922;5.346;2023-11-21T00:46:20;9.80;99.90
25914;DHT22;13718;50.922;5.346;2023-11-21T00:48:45;9.70;99.90
25914;DHT22;13718;50.922;5.346;2023-11-21T00:51:11;9.70;99.90
25914;DHT22;13718;50.922;5.346;2023-11-21T00:53:36;9.70;99.90
25914;DHT22;13718;50.922;5.346;2023-11-21T00:56:02;9.70;99.90
25914;DHT22;13718;50.922;5.346;2023-11-21T00:58:28;9.70;99.90
25914;DHT22;13718;50.922;5.346;2023-11-21T01:00:53;9.70;99.90
25914;DHT22;13718;50.922;5.346;2023-11-21T01:03:19;9.70;99.90
25914;DHT22;13718;50.922;5.346;2023-11-21T01:05:45;9.80;99.90
25914;DHT22;13718;50.922;5.346;2023-11-21T01:08:11;9.80;99.90
25914;DHT22;13718;50.922;5.346;2023-11-21T01:10:36;9.80;99.90
25914;DHT22;13718;50.922;5.346;2023-11-21T01:13:02;9.80;99.90
25914;DHT22;13718;50.922;5.346;2023-11-21T01:15:30;9.80;99.90
25914;DHT22;13718;50.922;5.346;2023-11-21T01:17:56;9.80;99.90
25914;DHT22;13718;50.922;5.346;2023-11-21T01:20:21;9.80;99.90
25914;DHT22;13718;50.922;5.346;2023-11-21T01:22:47;9.80;99.90
25914;DHT22;13718;50.922;5.346;2023-11-21T01:25:14;9.80;99.90
25914;DHT22;13718;50.922;5.346;2023-11-21T01:27:39;9.80;99.90
25914;DHT22;13718;50.922;5.346;2023-11-21T01:30:05;9.90;99.90
25914;DHT22;13718;50.922;5.346;2023-11-21T01:32:33;9.90;99.90
25914;DHT22;13718;50.922;5.346;2023-11-21T01:34:59;10.00;99.90
25914;DHT22;13718;50.922;5.346;2023-11-21T01:37:25;9.90;99.90
25914;DHT22;13718;50.922;5.346;2023-11-21T01:39:55;9.90;99.90
25914;DHT22;13718;50.922;5.346;2023-11-21T01:42:21;9.90;99.90
25914;DHT22;13718;50.922;5.346;2023-11-21T01:44:46;9.90;99.90
25914;DHT22;13718;50.922;5.346;2023-11-21T01:47:12;9.90;99.90
25914;DHT22;13718;50.922;5.346;2023-11-21T01:49:38;9.90;99.90
25914;DHT22;13718;50.922;5.346;2023-11-21T01:52:03;9.90;99.90
25914;DHT22;13718;50.922;5.346;2023-11-21T01:54:29;9.90;99.90
25914;DHT22;13718;50.922;5.346;2023-11-21T01:57:01;9.90;99.90
25914;DHT22;13718;50.922;5.346;2023-11-21T01:59:30;9.90;99.90
25914;DHT22;13718;50.922;5.346;2023-11-21T02:01:59;9.90;99.90
25914;DHT22;13718;50.922;5.346;2023-11-21T02:04:24;10.00;99.90
25914;DHT22;13718;50.922;5.346;2023-11-21T02:06:50;10.00;99.90
25914;DHT22;13718;50.922;5.346;2023-11-21T02:09:16;10.00;99.90
25914;DHT22;13718;50.922;5.346;2023-11-21T02:11:42;9.90;99.90
25914;DHT22;13718;50.922;5.346;2023-11-21T02:14:09;9.90;99.90
25914;DHT22;13718;50.922;5.346;2023-11-21T02:16:35;9.90;99.90
25914;DHT22;13718;50.922;5.346;2023-11-21T02:19:01;9.90;99.90
25914;DHT22;13718;50.922;5.346;2023-11-21T02:21:26;9.90;99.90
25914;DHT22;13718;50.922;5.346;2023-11-21T02:23:52;10.00;99.90
25914;DHT22;13718;50.922;5.346;2023-11-21T02:26:18;10.00;99.90
25914;DHT22;13718;50.922;5.346;2023-11-21T02:28:43;10.00;99.90
25914;DHT22;13718;50.922;5.346;2023-11-21T02:31:09;10.00;99.90
25914;DHT22;13718;50.922;5.346;2023-11-21T02:33:34;10.00;99.90
25914;DHT22;13718;50.922;5.346;2023-11-21T02:36:00;9.90;99.90
25914;DHT22;13718;50.922;5.346;2023-11-21T02:38:26;9.90;99.90
25914;DHT22;13718;50.922;5.346;2023-11-21T02:40:51;9.90;99.90
25914;DHT22;13718;50.922;5.346;2023-11-21T02:43:17;9.90;99.90
25914;DHT22;13718;50.922;5.346;2023-11-21T02:45:42;9.90;99.90
25914;DHT22;13718;50.922;5.346;2023-11-21T02:48:08;9.80;99.90
25914;DHT22;13718;50.922;5.346;2023-11-21T02:50:34;9.80;99.90
25914;DHT22;13718;50.922;5.346;2023-11-21T02:53:00;9.80;99.90
25914;DHT22;13718;50.922;5.346;2023-11-21T02:55:26;9.80;99.90
25914;DHT22;13718;50.922;5.346;2023-11-21T02:57:52;9.80;99.90
25914;DHT22;13718;50.922;5.346;2023-11-21T03:00:17;9.80;99.90
25914;DHT22;13718;50.922;5.346;2023-11-21T03:02:43;9.90;99.90
25914;DHT22;13718;50.922;5.346;2023-11-21T03:05:09;9.80;99.90
25914;DHT22;13718;50.922;5.346;2023-11-21T03:07:36;9.90;99.90
25914;DHT22;13718;50.922;5.346;2023-11-21T03:10:01;9.90;99.90
25914;DHT22;13718;50.922;5.346;2023-11-21T03:12:27;9.90;99.90
25914;DHT22;13718;50.922;5.346;2023-11-21T03:14:52;9.90;99.90
25914;DHT22;13718;50.922;5.346;2023-11-21T03:17:19;10.00;99.90
25914;DHT22;13718;50.922;5.346;2023-11-21T03:19:44;10.00;99.90
25914;DHT22;13718;50.922;5.346;2023-11-21T03:22:10;10.00;99.90
25914;DHT22;13718;50.922;5.346;2023-11-21T03:24:37;10.00;99.90
25914;DHT22;13718;50.922;5.346;2023-11-21T03:27:03;10.00;99.90
25914;DHT22;13718;50.922;5.346;2023-11-21T03:29:29;10.00;99.90
25914;DHT22;13718;50.922;5.346;2023-11-21T03:31:54;10.00;99.90
25914;DHT22;13718;50.922;5.346;2023-11-21T03:34:24;10.10;99.90
25914;DHT22;13718;50.922;5.346;2023-11-21T03:36:51;10.10;99.90
25914;DHT22;13718;50.922;5.346;2023-11-21T03:39:16;10.00;99.90
25914;DHT22;13718;50.922;5.346;2023-11-21T03:41:42;10.10;99.90
25914;DHT22;13718;50.922;5.346;2023-11-21T03:44:07;10.10;99.90
25914;DHT22;13718;50.922;5.346;2023-11-21T03:46:32;10.10;99.90
25914;DHT22;13718;50.922;5.346;2023-11-21T03:48:58;10.10;99.90
25914;DHT22;13718;50.922;5.346;2023-11-21T03:51:23;10.10;99.90
25914;DHT22;13718;50.922;5.346;2023-11-21T03:53:50;10.10;99.90
25914;DHT22;13718;50.922;5.346;2023-11-21T03:56:16;10.10;99.90
25914;DHT22;13718;50.922;5.346;2023-11-21T03:58:41;10.10;99.90
25914;DHT22;13718;50.922;5.346;2023-11-21T04:01:07;10.10;99.90
25914;DHT22;13718;50.922;5.346;2023-11-21T04:03:32;10.10;99.90
25914;DHT22;13718;50.922;5.346;2023-11-21T04:05:57;10.00;99.90
25914;DHT22;13718;50.922;5.346;2023-11-21T04:08:23;10.00;99.90
25914;DHT22;13718;50.922;5.346;2023-11-21T04:10:48;10.00;99.90
25914;DHT22;13718;50.922;5.346;2023-11-21T04:13:14;10.00;99.90
25914;DHT22;13718;50.922;5.346;2023-11-21T04:15:39;10.00;99.90
25914;DHT22;13718;50.922;5.346;2023-11-21T04:18:05;10.00;99.90
25914;DHT22;13718;50.922;5.346;2023-11-21T04:20:30;10.00;99.90
25914;DHT22;13718;50.922;5.346;2023-11-21T04:22:56;10.00;99.90
25914;DHT22;13718;50.922;5.346;2023-11-21T04:25:21;10.00;99.90
25914;DHT22;13718;50.922;5.346;2023-11-21T04:27:48;10.00;99.90
25914;DHT22;13718;50.922;5.346;2023-11-21T04:30:14;10.00;99.90
25914;DHT22;13718;50.922;5.346;2023-11-21T04:32:40;9.90;99.90
25914;DHT22;13718;50.922;5.346;2023-11-21T04:35:07;10.00;99.90
25914;DHT22;13718;50.922;5.346;2023-11-21T04:37:33;9.90;99.90
25914;DHT22;13718;50.922;5.346;2023-11-21T04:39:59;9.90;99.90
25914;DHT22;13718;50.922;5.346;2023-11-21T04:42:24;10.00;99.90
25914;DHT22;13718;50.922;5.346;2023-11-21T04:44:50;9.90;99.90
25914;DHT22;13718;50.922;5.346;2023-11-21T04:47:15;9.90;99.90
25914;DHT22;13718;50.922;5.346;2023-11-21T04:49:44;9.90;99.90
25914;DHT22;13718;50.922;5.346;2023-11-21T04:52:12;9.90;99.90
25914;DHT22;13718;50.922;5.346;2023-11-21T04:54:37;9.90;99.90
25914;DHT22;13718;50.922;5.346;2023-11-21T04:57:03;9.90;99.90
25914;DHT22;13718;50.922;5.346;2023-11-21T04:59:30;9.90;99.90
25914;DHT22;13718;50.922;5.346;2023-11-21T05:01:55;9.90;99.90
25914;DHT22;13718;50.922;5.346;2023-11-21T05:04:21;9.90;99.90
25914;DHT22;13718;50.922;5.346;2023-11-21T05:06:49;9.90;99.90
25914;DHT22;13718;50.922;5.346;2023-11-21T05:09:15;9.80;99.90
25914;DHT22;13718;50.922;5.346;2023-11-21T05:11:41;9.80;99.90
25914;DHT22;13718;50.922;5.346;2023-11-21T05:14:06;9.80;99.90
25914;DHT22;13718;50.922;5.346;2023-11-21T05:16:32;9.90;99.90
25914;DHT22;13718;50.922;5.346;2023-11-21T05:18:59;9.90;99.90
25914;DHT22;13718;50.922;5.346;2023-11-21T05:21:26;10.00;99.90
25914;DHT22;13718;50.922;5.346;2023-11-21T05:23:51;10.10;99.90
25914;DHT22;13718;50.922;5.346;2023-11-21T05:26:17;9.90;99.90
25914;DHT22;13718;50.922;5.346;2023-11-21T05:28:42;9.80;99.90
25914;DHT22;13718;50.922;5.346;2023-11-21T05:31:08;9.80;99.90
25914;DHT22;13718;50.922;5.346;2023-11-21T05:33:33;9.70;99.90
25914;DHT22;13718;50.922;5.346;2023-11-21T05:35:59;9.70;99.90
25914;DHT22;13718;50.922;5.346;2023-11-21T05:38:24;9.70;99.90
25914;DHT22;13718;50.922;5.346;2023-11-21T05:40:49;9.70;99.90
25914;DHT22;13718;50.922;5.346;2023-11-21T05:43:15;9.70;99.90
25914;DHT22;13718;50.922;5.346;2023-11-21T05:45:41;9.70;99.90
25914;DHT22;13718;50.922;5.346;2023-11-21T05:48:06;9.70;99.90
25914;DHT22;13718;50.922;5.346;2023-11-21T05:50:31;9.70;99.90
25914;DHT22;13718;50.922;5.346;2023-11-21T05:52:57;9.70;99.90
25914;DHT22;13718;50.922;5.346;2023-11-21T05:55:25;9.70;99.90
25914;DHT22;13718;50.922;5.346;2023-11-21T05:57:51;9.70;99.90
25914;DHT22;13718;50.922;5.346;2023-11-21T06:00:16;9.70;99.90
25914;DHT22;13718;50.922;5.346;2023-11-21T06:02:48;9.70;99.90
25914;DHT22;13718;50.922;5.346;2023-11-21T06:05:16;9.80;99.90
25914;DHT22;13718;50.922;5.346;2023-11-21T06:07:43;9.80;99.90
25914;DHT22;13718;50.922;5.346;2023-11-21T06:10:08;9.80;99.90
25914;DHT22;13718;50.922;5.346;2023-11-21T06:12:35;9.80;99.90
25914;DHT22;13718;50.922;5.346;2023-11-21T06:15:04;9.80;99.90
25914;DHT22;13718;50.922;5.346;2023-11-21T06:17:30;9.80;99.90
25914;DHT22;13718;50.922;5.346;2023-11-21T06:19:56;9.80;99.90
25914;DHT22;13718;50.922;5.346;2023-11-21T06:22:21;9.80;99.90
25914;DHT22;13718;50.922;5.346;2023-11-21T06:24:47;9.80;99.90
25914;DHT22;13718;50.922;5.346;2023-11-21T06:27:12;9.80;99.90
25914;DHT22;13718;50.922;5.346;2023-11-21T06:29:38;9.90;99.90
25914;DHT22;13718;50.922;5.346;2023-11-21T06:32:04;9.90;99.90
25914;DHT22;13718;50.922;5.346;2023-11-21T06:34:30;9.90;99.90
25914;DHT22;13718;50.922;5.346;2023-11-21T06:36:56;9.90;99.90
25914;DHT22;13718;50.922;5.346;2023-11-21T06:39:21;9.80;99.90
25914;DHT22;13718;50.922;5.346;2023-11-21T06:41:49;9.90;99.90
25914;DHT22;13718;50.922;5.346;2023-11-21T06:44:14;9.80;99.90
25914;DHT22;13718;50.922;5.346;2023-11-21T06:46:40;9.80;99.90
25914;DHT22;13718;50.922;5.346;2023-11-21T06:49:08;9.80;99.90
25914;DHT22;13718;50.922;5.346;2023-11-21T06:51:33;9.80;99.90
25914;DHT22;13718;50.922;5.346;2023-11-21T06:53:58;9.90;99.90
25914;DHT22;13718;50.922;5.346;2023-11-21T06:56:24;9.90;99.90
25914;DHT22;13718;50.922;5.346;2023-11-21T06:58:49;9.90;99.90
25914;DHT22;13718;50.922;5.346;2023-11-21T07:01:19;10.00;99.90
25914;DHT22;13718;50.922;5.346;2023-11-21T07:03:44;10.00;99.90
25914;DHT22;13718;50.922;5.346;2023-11-21T07:06:10;10.10;99.90
25914;DHT22;13718;50.922;5.346;2023-11-21T07:08:36;10.00;99.90
25914;DHT22;13718;50.922;5.346;2023-11-21T07:11:02;10.10;99.90
25914;DHT22;13718;50.922;5.346;2023-11-21T07:13:28;10.10;99.90
25914;DHT22;13718;50.922;5.346;2023-11-21T07:15:54;10.00;99.90
25914;DHT22;13718;50.922;5.346;2023-11-21T07:18:19;10.00;99.90
25914;DHT22;13718;50.922;5.346;2023-11-21T07:20:45;10.00;99.90
25914;DHT22;13718;50.922;5.346;2023-11-21T07:23:10;10.10;99.90
25914;DHT22;13718;50.922;5.346;2023-11-21T07:25:36;10.00;99.90
25914;DHT22;13718;50.922;5.346;2023-11-21T07:28:01;10.10;99.90
25914;DHT22;13718;50.922;5.346;2023-11-21T07:30:27;10.10;99.90
25914;DHT22;13718;50.922;5.346;2023-11-21T07:32:53;10.10;99.90
25914;DHT22;13718;50.922;5.346;2023-11-21T07:35:18;10.10;99.90
25914;DHT22;13718;50.922;5.346;2023-11-21T07:37:44;10.10;99.90
25914;DHT22;13718;50.922;5.346;2023-11-21T07:40:09;10.20;99.90
25914;DHT22;13718;50.922;5.346;2023-11-21T07:42:37;10.20;99.90
25914;DHT22;13718;50.922;5.346;2023-11-21T07:45:03;10.20;99.90
25914;DHT22;13718;50.922;5.346;2023-11-21T07:47:28;10.20;99.90
25914;DHT22;13718;50.922;5.346;2023-11-21T07:49:54;10.20;99.90
25914;DHT22;13718;50.922;5.346;2023-11-21T07:52:21;10.30;99.90
25914;DHT22;13718;50.922;5.346;2023-11-21T07:54:47;10.40;99.90
25914;DHT22;13718;50.922;5.346;2023-11-21T07:57:12;10.40;99.90
25914;DHT22;13718;50.922;5.346;2023-11-21T07:59:39;10.40;99.90
25914;DHT22;13718;50.922;5.346;2023-11-21T08:02:06;10.30;99.90
25914;DHT22;13718;50.922;5.346;2023-11-21T08:04:31;10.30;99.90
25914;DHT22;13718;50.922;5.346;2023-11-21T08:06:57;10.30;99.90
25914;DHT22;13718;50.922;5.346;2023-11-21T08:09:22;10.40;99.90
25914;DHT22;13718;50.922;5.346;2023-11-21T08:11:49;10.40;99.90
25914;DHT22;13718;50.922;5.346;2023-11-21T08:14:14;10.40;99.90
25914;DHT22;13718;50.922;5.346;2023-11-21T08:16:40;10.40;99.90
25914;DHT22;13718;50.922;5.346;2023-11-21T08:19:06;10.40;99.90
25914;DHT22;13718;50.922;5.346;2023-11-21T08:21:31;10.40;99.90
25914;DHT22;13718;50.922;5.346;2023-11-21T08:23:57;10.40;99.90
25914;DHT22;13718;50.922;5.346;2023-11-21T08:26:22;10.50;99.90
25914;DHT22;13718;50.922;5.346;2023-11-21T08:28:48;10.50;99.90
25914;DHT22;13718;50.922;5.346;2023-11-21T08:31:14;10.50;99.90
25914;DHT22;13718;50.922;5.346;2023-11-21T08:33:39;10.50;99.90
25914;DHT22;13718;50.922;5.346;2023-11-21T08:36:08;10.50;99.90
25914;DHT22;13718;50.922;5.346;2023-11-21T08:38:34;10.50;99.90
25914;DHT22;13718;50.922;5.346;2023-11-21T08:41:05;10.50;99.90
25914;DHT22;13718;50.922;5.346;2023-11-21T08:43:35;10.50;99.90
25914;DHT22;13718;50.922;5.346;2023-11-21T08:46:00;10.40;99.90
25914;DHT22;13718;50.922;5.346;2023-11-21T08:48:26;10.40;99.90
25914;DHT22;13718;50.922;5.346;2023-11-21T08:50:53;10.40;99.90
25914;DHT22;13718;50.922;5.346;2023-11-21T08:53:19;10.50;99.90
25914;DHT22;13718;50.922;5.346;2023-11-21T08:55:44;10.50;99.90
25914;DHT22;13718;50.922;5.346;2023-11-21T08:58:10;10.60;99.90
25914;DHT22;13718;50.922;5.346;2023-11-21T09:00:37;10.70;99.90
25914;DHT22;13718;50.922;5.346;2023-11-21T09:03:04;10.70;99.90
25914;DHT22;13718;50.922;5.346;2023-11-21T09:05:34;10.70;99.90
25914;DHT22;13718;50.922;5.346;2023-11-21T09:07:59;10.70;99.90
25914;DHT22;13718;50.922;5.346;2023-11-21T09:10:24;10.70;99.90
25914;DHT22;13718;50.922;5.346;2023-11-21T09:12:50;10.70;99.90
25914;DHT22;13718;50.922;5.346;2023-11-21T09:15:17;10.70;99.90
25914;DHT22;13718;50.922;5.346;2023-11-21T09:17:42;10.70;99.90
25914;DHT22;13718;50.922;5.346;2023-11-21T09:20:09;10.70;99.90
25914;DHT22;13718;50.922;5.346;2023-11-21T09:22:35;10.70;99.90
25914;DHT22;13718;50.922;5.346;2023-11-21T09:25:02;10.80;99.90
25914;DHT22;13718;50.922;5.346;2023-11-21T09:27:31;10.80;99.90
25914;DHT22;13718;50.922;5.346;2023-11-21T09:29:56;10.90;99.90
25914;DHT22;13718;50.922;5.346;2023-11-21T09:32:23;10.90;99.90
25914;DHT22;13718;50.922;5.346;2023-11-21T09:34:51;11.00;99.90
25914;DHT22;13718;50.922;5.346;2023-11-21T09:37:19;11.10;99.90
25914;DHT22;13718;50.922;5.346;2023-11-21T09:39:44;11.20;99.90
25914;DHT22;13718;50.922;5.346;2023-11-21T09:42:10;11.20;99.90
25914;DHT22;13718;50.922;5.346;2023-11-21T09:47:05;11.30;99.90
25914;DHT22;13718;50.922;5.346;2023-11-21T09:49:35;11.20;99.90
25914;DHT22;13718;50.922;5.346;2023-11-21T09:52:02;11.30;99.90
25914;DHT22;13718;50.922;5.346;2023-11-21T09:54:29;11.30;99.90
25914;DHT22;13718;50.922;5.346;2023-11-21T09:56:54;11.30;99.90
25914;DHT22;13718;50.922;5.346;2023-11-21T09:59:20;11.40;99.90
25914;DHT22;13718;50.922;5.346;2023-11-21T10:01:46;11.40;99.90
25914;DHT22;13718;50.922;5.346;2023-11-21T10:04:13;11.40;99.90
25914;DHT22;13718;50.922;5.346;2023-11-21T10:06:39;11.40;99.90
25914;DHT22;13718;50.922;5.346;2023-11-21T10:09:08;11.40;99.90
25914;DHT22;13718;50.922;5.346;2023-11-21T10:11:40;11.40;99.90
25914;DHT22;13718;50.922;5.346;2023-11-21T10:14:07;11.40;99.90
25914;DHT22;13718;50.922;5.346;2023-11-21T10:16:33;11.50;99.90
25914;DHT22;13718;50.922;5.346;2023-11-21T10:18:58;11.60;99.90
25914;DHT22;13718;50.922;5.346;2023-11-21T10:21:24;11.70;99.90
25914;DHT22;13718;50.922;5.346;2023-11-21T10:23:50;11.70;99.90
25914;DHT22;13718;50.922;5.346;2023-11-21T10:26:18;11.80;99.90
25914;DHT22;13718;50.922;5.346;2023-11-21T10:28:54;11.70;99.90
25914;DHT22;13718;50.922;5.346;2023-11-21T10:31:21;11.70;99.90
25914;DHT22;13718;50.922;5.346;2023-11-21T10:33:49;11.70;99.90
25914;DHT22;13718;50.922;5.346;2023-11-21T10:36:24;11.70;99.90
25914;DHT22;13718;50.922;5.346;2023-11-21T10:38:49;11.60;99.90
25914;DHT22;13718;50.922;5.346;2023-11-21T10:41:18;11.60;99.90
25914;DHT22;13718;50.922;5.346;2023-11-21T10:43:43;11.60;99.90
25914;DHT22;13718;50.922;5.346;2023-11-21T10:46:09;11.60;99.90
25914;DHT22;13718;50.922;5.346;2023-11-21T10:48:35;11.60;99.90
25914;DHT22;13718;50.922;5.346;2023-11-21T10:51:01;11.60;99.90
25914;DHT22;13718;50.922;5.346;2023-11-21T10:53:31;11.60;99.90
25914;DHT22;13718;50.922;5.346;2023-11-21T10:56:06;11.70;99.90
25914;DHT22;13718;50.922;5.346;2023-11-21T10:58:33;11.70;99.90
25914;DHT22;13718;50.922;5.346;2023-11-21T11:01:00;11.70;99.90
25914;DHT22;13718;50.922;5.346;2023-11-21T11:03:29;11.80;99.90
25914;DHT22;13718;50.922;5.346;2023-11-21T11:05:54;11.80;99.90
25914;DHT22;13718;50.922;5.346;2023-11-21T11:08:23;11.70;99.90
25914;DHT22;13718;50.922;5.346;2023-11-21T11:10:51;11.70;99.90
25914;DHT22;13718;50.922;5.346;2023-11-21T11:13:17;11.80;99.90
25914;DHT22;13718;50.922;5.346;2023-11-21T11:15:44;11.80;99.90
25914;DHT22;13718;50.922;5.346;2023-11-21T11:18:12;11.80;99.90
25914;DHT22;13718;50.922;5.346;2023-11-21T11:20:39;11.80;99.90
25914;DHT22;13718;50.922;5.346;2023-11-21T11:28:40;11.70;99.90
25914;DHT22;13718;50.922;5.346;2023-11-21T11:31:14;11.70;99.90
25914;DHT22;13718;50.922;5.346;2023-11-21T11:36:29;11.70;99.90
25914;DHT22;13718;50.922;5.346;2023-11-21T11:38:57;11.80;99.90
25914;DHT22;13718;50.922;5.346;2023-11-21T11:41:27;11.80;99.90
25914;DHT22;13718;50.922;5.346;2023-11-21T11:43:55;11.80;99.90
25914;DHT22;13718;50.922;5.346;2023-11-21T11:46:20;11.80;99.90
25914;DHT22;13718;50.922;5.346;2023-11-21T11:48:49;11.90;99.90
25914;DHT22;13718;50.922;5.346;2023-11-21T11:51:28;11.90;99.90
25914;DHT22;13718;50.922;5.346;2023-11-21T11:53:54;11.90;99.90
25914;DHT22;13718;50.922;5.346;2023-11-21T11:56:23;12.00;99.90
25914;DHT22;13718;50.922;5.346;2023-11-21T11:58:54;12.00;99.90
25914;DHT22;13718;50.922;5.346;2023-11-21T12:01:20;12.00;99.90
25914;DHT22;13718;50.922;5.346;2023-11-21T12:06:34;12.00;99.90
25914;DHT22;13718;50.922;5.346;2023-11-21T12:09:01;11.90;99.90
25914;DHT22;13718;50.922;5.346;2023-11-21T12:11:30;12.00;99.90
25914;DHT22;13718;50.922;5.346;2023-11-21T12:13:55;12.00;99.90
25914;DHT22;13718;50.922;5.346;2023-11-21T12:16:21;12.10;99.90
25914;DHT22;13718;50.922;5.346;2023-11-21T12:18:48;12.10;99.90
25914;DHT22;13718;50.922;5.346;2023-11-21T12:21:13;12.20;99.90
25914;DHT22;13718;50.922;5.346;2023-11-21T12:23:39;12.10;99.90
25914;DHT22;13718;50.922;5.346;2023-11-21T12:26:06;12.10;99.90
25914;DHT22;13718;50.922;5.346;2023-11-21T12:28:31;12.10;99.90
25914;DHT22;13718;50.922;5.346;2023-11-21T12:30:57;12.10;99.90
25914;DHT22;13718;50.922;5.346;2023-11-21T12:33:22;12.20;99.90
25914;DHT22;13718;50.922;5.346;2023-11-21T12:35:48;12.20;99.90
25914;DHT22;13718;50.922;5.346;2023-11-21T12:38:13;12.20;99.90
25914;DHT22;13718;50.922;5.346;2023-11-21T12:40:39;12.20;99.90
25914;DHT22;13718;50.922;5.346;2023-11-21T12:43:05;12.20;99.90
25914;DHT22;13718;50.922;5.346;2023-11-21T12:45:33;12.10;99.90
25914;DHT22;13718;50.922;5.346;2023-11-21T12:48:00;12.20;99.90
25914;DHT22;13718;50.922;5.346;2023-11-21T12:50:27;12.20;99.90
25914;DHT22;13718;50.922;5.346;2023-11-21T12:53:01;12.20;99.90
25914;DHT22;13718;50.922;5.346;2023-11-21T12:55:29;12.20;99.90
25914;DHT22;13718;50.922;5.346;2023-11-21T12:57:55;12.20;99.90
25914;DHT22;13718;50.922;5.346;2023-11-21T13:00:54;12.20;99.90
25914;DHT22;13718;50.922;5.346;2023-11-21T13:03:13;12.10;99.90
25914;DHT22;13718;50.922;5.346;2023-11-21T13:05:42;12.00;99.90
25914;DHT22;13718;50.922;5.346;2023-11-21T13:08:10;12.00;99.90
25914;DHT22;13718;50.922;5.346;2023-11-21T13:10:41;12.10;99.90
25914;DHT22;13718;50.922;5.346;2023-11-21T13:13:11;12.20;99.90
25914;DHT22;13718;50.922;5.346;2023-11-21T13:15:53;12.20;99.90
25914;DHT22;13718;50.922;5.346;2023-11-21T13:18:21;12.20;99.90
25914;DHT22;13718;50.922;5.346;2023-11-21T13:20:47;12.20;99.90
25914;DHT22;13718;50.922;5.346;2023-11-21T13:23:13;12.20;99.90
25914;DHT22;13718;50.922;5.346;2023-11-21T13:25:39;12.20;99.90
25914;DHT22;13718;50.922;5.346;2023-11-21T13:28:06;12.20;99.90
25914;DHT22;13718;50.922;5.346;2023-11-21T13:30:32;12.10;99.90
25914;DHT22;13718;50.922;5.346;2023-11-21T13:33:03;12.00;99.90
25914;DHT22;13718;50.922;5.346;2023-11-21T13:35:36;12.10;99.90
25914;DHT22;13718;50.922;5.346;2023-11-21T13:38:09;12.10;99.90
25914;DHT22;13718;50.922;5.346;2023-11-21T13:40:36;12.30;99.90
25914;DHT22;13718;50.922;5.346;2023-11-21T13:43:12;12.40;99.90
25914;DHT22;13718;50.922;5.346;2023-11-21T13:45:41;12.30;99.90
25914;DHT22;13718;50.922;5.346;2023-11-21T13:48:07;12.30;99.90
25914;DHT22;13718;50.922;5.346;2023-11-21T13:50:36;12.30;99.90
25914;DHT22;13718;50.922;5.346;2023-11-21T13:53:02;12.20;99.90
25914;DHT22;13718;50.922;5.346;2023-11-21T13:55:44;12.10;99.90
25914;DHT22;13718;50.922;5.346;2023-11-21T13:58:10;12.10;99.90
25914;DHT22;13718;50.922;5.346;2023-11-21T14:00:42;12.00;99.90
25914;DHT22;13718;50.922;5.346;2023-11-21T14:03:13;12.10;99.90
25914;DHT22;13718;50.922;5.346;2023-11-21T14:05:57;12.00;99.90
25914;DHT22;13718;50.922;5.346;2023-11-21T14:08:25;12.00;99.90
25914;DHT22;13718;50.922;5.346;2023-11-21T14:10:57;12.00;99.90
25914;DHT22;13718;50.922;5.346;2023-11-21T14:13:23;12.10;99.90
25914;DHT22;13718;50.922;5.346;2023-11-21T14:15:50;12.10;99.90
25914;DHT22;13718;50.922;5.346;2023-11-21T14:18:19;12.10;99.90
25914;DHT22;13718;50.922;5.346;2023-11-21T14:20:52;12.10;99.90
25914;DHT22;13718;50.922;5.346;2023-11-21T14:23:18;12.10;99.90
25914;DHT22;13718;50.922;5.346;2023-11-21T14:25:43;11.90;99.90
25914;DHT22;13718;50.922;5.346;2023-11-21T14:28:09;11.80;99.90
25914;DHT22;13718;50.922;5.346;2023-11-21T14:30:37;11.80;99.90
25914;DHT22;13718;50.922;5.346;2023-11-21T14:33:05;11.90;99.90
25914;DHT22;13718;50.922;5.346;2023-11-21T14:35:31;11.90;99.90
25914;DHT22;13718;50.922;5.346;2023-11-21T14:38:00;11.90;99.90
25914;DHT22;13718;50.922;5.346;2023-11-21T14:40:28;11.90;99.90
25914;DHT22;13718;50.922;5.346;2023-11-21T14:42:59;11.90;99.90
25914;DHT22;13718;50.922;5.346;2023-11-21T14:45:24;11.90;99.90
25914;DHT22;13718;50.922;5.346;2023-11-21T14:47:51;12.00;99.90
25914;DHT22;13718;50.922;5.346;2023-11-21T14:50:31;12.00;99.90
25914;DHT22;13718;50.922;5.346;2023-11-21T14:53:02;12.00;99.90
25914;DHT22;13718;50.922;5.346;2023-11-21T14:55:34;11.90;99.90
25914;DHT22;13718;50.922;5.346;2023-11-21T14:58:20;11.90;99.90
25914;DHT22;13718;50.922;5.346;2023-11-21T15:00:55;11.80;99.90
25914;DHT22;13718;50.922;5.346;2023-11-21T15:03:24;11.80;99.90
25914;DHT22;13718;50.922;5.346;2023-11-21T15:05:59;11.90;99.90
25914;DHT22;13718;50.922;5.346;2023-11-21T15:08:26;11.90;99.90
25914;DHT22;13718;50.922;5.346;2023-11-21T15:10:56;11.90;99.90
25914;DHT22;13718;50.922;5.346;2023-11-21T15:13:22;12.00;99.90
25914;DHT22;13718;50.922;5.346;2023-11-21T15:15:50;11.90;99.90
25914;DHT22;13718;50.922;5.346;2023-11-21T15:18:15;11.80;99.90
25914;DHT22;13718;50.922;5.346;2023-11-21T15:20:41;11.70;99.90
25914;DHT22;13718;50.922;5.346;2023-11-21T15:23:08;11.70;99.90
25914;DHT22;13718;50.922;5.346;2023-11-21T15:25:34;11.70;99.90
25914;DHT22;13718;50.922;5.346;2023-11-21T15:28:00;11.70;99.90
25914;DHT22;13718;50.922;5.346;2023-11-21T15:30:26;11.70;99.90
25914;DHT22;13718;50.922;5.346;2023-11-21T15:32:52;11.60;99.90
25914;DHT22;13718;50.922;5.346;2023-11-21T15:35:20;11.50;99.90
25914;DHT22;13718;50.922;5.346;2023-11-21T15:37:45;11.50;99.90
25914;DHT22;13718;50.922;5.346;2023-11-21T15:40:11;11.40;99.90
25914;DHT22;13718;50.922;5.346;2023-11-21T15:42:38;11.50;99.90
25914;DHT22;13718;50.922;5.346;2023-11-21T15:45:04;11.50;99.90
25914;DHT22;13718;50.922;5.346;2023-11-21T15:47:32;11.50;99.90